sensor_id;sensor_type;location;lat;lon;timestamp;P1;durP1;ratioP1;P2;durP2;ratioP2
12369;SDS011;6249;52.128;9.986;2023-02-04T00:00:40;37.70;;;4.97;;
12369;SDS011;6249;52.128;9.986;2023-02-04T00:04:00;40.13;;;6.13;;
12369;SDS011;6249;52.128;9.986;2023-02-04T00:07:21;38.73;;;6.13;;
12369;SDS011;6249;52.128;9.986;2023-02-04T00:10:42;31.83;;;7.07;;
12369;SDS011;6249;52.128;9.986;2023-02-04T00:14:02;55.73;;;5.97;;
12369;SDS011;6249;52.128;9.986;2023-02-04T00:17:25;40.03;;;8.77;;
12369;SDS011;6249;52.128;9.986;2023-02-04T00:20:46;64.40;;;6.33;;
12369;SDS011;6249;52.128;9.986;2023-02-04T00:24:11;47.47;;;5.23;;
12369;SDS011;6249;52.128;9.986;2023-02-04T00:27:32;40.50;;;5.50;;
12369;SDS011;6249;52.128;9.986;2023-02-04T00:30:54;31.87;;;4.03;;
12369;SDS011;6249;52.128;9.986;2023-02-04T00:34:15;39.40;;;4.47;;
12369;SDS011;6249;52.128;9.986;2023-02-04T00:37:38;30.27;;;4.47;;
12369;SDS011;6249;52.128;9.986;2023-02-04T00:40:58;25.43;;;3.87;;
12369;SDS011;6249;52.128;9.986;2023-02-04T00:44:19;24.80;;;3.53;;
12369;SDS011;6249;52.128;9.986;2023-02-04T00:47:39;25.67;;;3.37;;
12369;SDS011;6249;52.128;9.986;2023-02-04T00:51:00;21.77;;;2.93;;
12369;SDS011;6249;52.128;9.986;2023-02-04T00:54:21;26.77;;;3.27;;
12369;SDS011;6249;52.128;9.986;2023-02-04T00:57:42;23.07;;;3.30;;
12369;SDS011;6249;52.128;9.986;2023-02-04T01:01:03;29.67;;;3.90;;
12369;SDS011;6249;52.128;9.986;2023-02-04T01:04:24;21.33;;;3.27;;
12369;SDS011;6249;52.128;9.986;2023-02-04T01:07:45;15.50;;;3.07;;
12369;SDS011;6249;52.128;9.986;2023-02-04T01:11:05;18.83;;;2.53;;
12369;SDS011;6249;52.128;9.986;2023-02-04T01:14:28;22.47;;;2.73;;
12369;SDS011;6249;52.128;9.986;2023-02-04T01:17:49;20.50;;;2.40;;
12369;SDS011;6249;52.128;9.986;2023-02-04T01:21:09;23.10;;;2.80;;
12369;SDS011;6249;52.128;9.986;2023-02-04T01:24:32;19.53;;;2.67;;
12369;SDS011;6249;52.128;9.986;2023-02-04T01:27:53;17.73;;;3.50;;
12369;SDS011;6249;52.128;9.986;2023-02-04T01:31:14;14.97;;;2.20;;
12369;SDS011;6249;52.128;9.986;2023-02-04T01:34:34;15.93;;;1.97;;
12369;SDS011;6249;52.128;9.986;2023-02-04T01:37:55;11.03;;;2.00;;
12369;SDS011;6249;52.128;9.986;2023-02-04T01:41:16;11.50;;;1.67;;
12369;SDS011;6249;52.128;9.986;2023-02-04T01:44:37;5.83;;;1.20;;
12369;SDS011;6249;52.128;9.986;2023-02-04T01:47:59;7.13;;;1.23;;
12369;SDS011;6249;52.128;9.986;2023-02-04T01:51:24;19.30;;;1.47;;
12369;SDS011;6249;52.128;9.986;2023-02-04T01:54:47;6.50;;;1.47;;
12369;SDS011;6249;52.128;9.986;2023-02-04T01:58:09;15.00;;;1.80;;
12369;SDS011;6249;52.128;9.986;2023-02-04T02:01:38;8.83;;;1.60;;
12369;SDS011;6249;52.128;9.986;2023-02-04T02:05:16;9.87;;;1.23;;
12369;SDS011;6249;52.128;9.986;2023-02-04T02:08:40;8.60;;;1.87;;
12369;SDS011;6249;52.128;9.986;2023-02-04T02:12:00;7.73;;;1.80;;
12369;SDS011;6249;52.128;9.986;2023-02-04T02:15:23;13.07;;;1.60;;
12369;SDS011;6249;52.128;9.986;2023-02-04T02:18:44;7.23;;;1.53;;
12369;SDS011;6249;52.128;9.986;2023-02-04T02:22:06;9.30;;;1.40;;
12369;SDS011;6249;52.128;9.986;2023-02-04T02:25:37;6.90;;;1.60;;
12369;SDS011;6249;52.128;9.986;2023-02-04T02:28:57;8.67;;;1.57;;
12369;SDS011;6249;52.128;9.986;2023-02-04T02:32:18;10.50;;;1.20;;
12369;SDS011;6249;52.128;9.986;2023-02-04T02:35:41;11.03;;;1.90;;
12369;SDS011;6249;52.128;9.986;2023-02-04T02:39:02;11.60;;;1.93;;
12369;SDS011;6249;52.128;9.986;2023-02-04T02:42:23;10.40;;;1.63;;
12369;SDS011;6249;52.128;9.986;2023-02-04T02:45:44;5.13;;;1.30;;
12369;SDS011;6249;52.128;9.986;2023-02-04T02:49:05;4.50;;;1.70;;
12369;SDS011;6249;52.128;9.986;2023-02-04T02:52:28;5.37;;;1.70;;
12369;SDS011;6249;52.128;9.986;2023-02-04T02:55:53;7.83;;;1.23;;
12369;SDS011;6249;52.128;9.986;2023-02-04T02:59:17;5.63;;;1.50;;
12369;SDS011;6249;52.128;9.986;2023-02-04T03:02:42;6.50;;;1.00;;
12369;SDS011;6249;52.128;9.986;2023-02-04T03:06:13;3.83;;;1.20;;
12369;SDS011;6249;52.128;9.986;2023-02-04T03:09:39;3.47;;;1.00;;
12369;SDS011;6249;52.128;9.986;2023-02-04T03:13:00;3.10;;;1.00;;
12369;SDS011;6249;52.128;9.986;2023-02-04T03:16:23;4.97;;;1.10;;
12369;SDS011;6249;52.128;9.986;2023-02-04T03:19:44;6.93;;;1.27;;
12369;SDS011;6249;52.128;9.986;2023-02-04T03:23:04;5.93;;;1.10;;
12369;SDS011;6249;52.128;9.986;2023-02-04T03:26:25;4.63;;;1.73;;
12369;SDS011;6249;52.128;9.986;2023-02-04T03:29:46;2.90;;;1.20;;
12369;SDS011;6249;52.128;9.986;2023-02-04T03:33:06;3.90;;;1.30;;
12369;SDS011;6249;52.128;9.986;2023-02-04T03:36:27;3.07;;;1.30;;
12369;SDS011;6249;52.128;9.986;2023-02-04T03:39:47;7.53;;;1.20;;
12369;SDS011;6249;52.128;9.986;2023-02-04T03:43:08;5.70;;;1.43;;
12369;SDS011;6249;52.128;9.986;2023-02-04T03:46:29;4.50;;;1.00;;
12369;SDS011;6249;52.128;9.986;2023-02-04T03:49:49;4.70;;;1.23;;
12369;SDS011;6249;52.128;9.986;2023-02-04T03:53:10;5.97;;;1.90;;
12369;SDS011;6249;52.128;9.986;2023-02-04T03:56:30;5.67;;;1.30;;
12369;SDS011;6249;52.128;9.986;2023-02-04T03:59:51;12.13;;;3.73;;
12369;SDS011;6249;52.128;9.986;2023-02-04T04:03:12;10.73;;;3.90;;
12369;SDS011;6249;52.128;9.986;2023-02-04T04:06:34;9.93;;;2.90;;
12369;SDS011;6249;52.128;9.986;2023-02-04T04:09:56;6.20;;;1.73;;
12369;SDS011;6249;52.128;9.986;2023-02-04T04:13:17;15.83;;;2.60;;
12369;SDS011;6249;52.128;9.986;2023-02-04T04:16:37;3.50;;;1.00;;
12369;SDS011;6249;52.128;9.986;2023-02-04T04:20:00;3.03;;;1.40;;
12369;SDS011;6249;52.128;9.986;2023-02-04T04:23:23;6.30;;;3.47;;
12369;SDS011;6249;52.128;9.986;2023-02-04T04:26:44;3.33;;;0.90;;
12369;SDS011;6249;52.128;9.986;2023-02-04T04:30:05;7.07;;;4.00;;
12369;SDS011;6249;52.128;9.986;2023-02-04T04:33:26;7.50;;;4.17;;
12369;SDS011;6249;52.128;9.986;2023-02-04T04:36:48;8.93;;;5.63;;
12369;SDS011;6249;52.128;9.986;2023-02-04T04:40:14;10.00;;;6.20;;
12369;SDS011;6249;52.128;9.986;2023-02-04T04:43:35;7.27;;;5.03;;
12369;SDS011;6249;52.128;9.986;2023-02-04T04:46:55;7.03;;;4.53;;
12369;SDS011;6249;52.128;9.986;2023-02-04T04:50:18;5.50;;;2.83;;
12369;SDS011;6249;52.128;9.986;2023-02-04T04:53:39;5.60;;;3.90;;
12369;SDS011;6249;52.128;9.986;2023-02-04T04:57:00;4.63;;;2.43;;
12369;SDS011;6249;52.128;9.986;2023-02-04T05:00:22;7.00;;;2.43;;
12369;SDS011;6249;52.128;9.986;2023-02-04T05:03:45;3.40;;;1.90;;
12369;SDS011;6249;52.128;9.986;2023-02-04T05:07:08;9.93;;;1.80;;
12369;SDS011;6249;52.128;9.986;2023-02-04T05:10:32;5.43;;;2.10;;
12369;SDS011;6249;52.128;9.986;2023-02-04T05:13:55;3.60;;;2.33;;
12369;SDS011;6249;52.128;9.986;2023-02-04T05:17:15;5.17;;;2.40;;
12369;SDS011;6249;52.128;9.986;2023-02-04T05:20:36;4.00;;;2.50;;
12369;SDS011;6249;52.128;9.986;2023-02-04T05:23:56;5.47;;;2.83;;
12369;SDS011;6249;52.128;9.986;2023-02-04T05:27:19;7.37;;;3.13;;
12369;SDS011;6249;52.128;9.986;2023-02-04T05:30:42;5.50;;;2.57;;
12369;SDS011;6249;52.128;9.986;2023-02-04T05:34:03;5.17;;;3.00;;
12369;SDS011;6249;52.128;9.986;2023-02-04T05:37:26;6.43;;;3.20;;
12369;SDS011;6249;52.128;9.986;2023-02-04T05:40:49;6.50;;;2.60;;
12369;SDS011;6249;52.128;9.986;2023-02-04T05:44:10;5.73;;;2.37;;
12369;SDS011;6249;52.128;9.986;2023-02-04T05:47:33;5.70;;;1.83;;
12369;SDS011;6249;52.128;9.986;2023-02-04T05:50:54;5.40;;;2.40;;
12369;SDS011;6249;52.128;9.986;2023-02-04T05:54:14;4.30;;;1.73;;
12369;SDS011;6249;52.128;9.986;2023-02-04T05:57:39;6.10;;;3.00;;
12369;SDS011;6249;52.128;9.986;2023-02-04T06:01:02;5.57;;;3.10;;
12369;SDS011;6249;52.128;9.986;2023-02-04T06:04:23;5.00;;;2.70;;
12369;SDS011;6249;52.128;9.986;2023-02-04T06:07:44;4.03;;;2.27;;
12369;SDS011;6249;52.128;9.986;2023-02-04T06:11:07;69.70;;;28.90;;
12369;SDS011;6249;52.128;9.986;2023-02-04T06:14:28;7.20;;;4.07;;
12369;SDS011;6249;52.128;9.986;2023-02-04T06:17:50;14.27;;;3.90;;
12369;SDS011;6249;52.128;9.986;2023-02-04T06:21:13;5.17;;;2.80;;
12369;SDS011;6249;52.128;9.986;2023-02-04T06:24:36;5.10;;;2.53;;
12369;SDS011;6249;52.128;9.986;2023-02-04T06:27:59;4.57;;;3.00;;
12369;SDS011;6249;52.128;9.986;2023-02-04T06:31:20;4.50;;;2.57;;
12369;SDS011;6249;52.128;9.986;2023-02-04T06:34:42;12.73;;;3.57;;
12369;SDS011;6249;52.128;9.986;2023-02-04T06:38:03;14.90;;;5.30;;
12369;SDS011;6249;52.128;9.986;2023-02-04T06:41:26;6.53;;;2.80;;
12369;SDS011;6249;52.128;9.986;2023-02-04T06:44:48;4.90;;;2.43;;
12369;SDS011;6249;52.128;9.986;2023-02-04T06:48:09;6.13;;;3.03;;
12369;SDS011;6249;52.128;9.986;2023-02-04T06:51:32;7.03;;;2.67;;
12369;SDS011;6249;52.128;9.986;2023-02-04T06:54:53;7.17;;;2.87;;
12369;SDS011;6249;52.128;9.986;2023-02-04T06:58:13;11.03;;;3.50;;
12369;SDS011;6249;52.128;9.986;2023-02-04T07:01:36;4.93;;;3.00;;
12369;SDS011;6249;52.128;9.986;2023-02-04T07:04:57;8.13;;;3.23;;
12369;SDS011;6249;52.128;9.986;2023-02-04T07:08:19;7.30;;;2.90;;
12369;SDS011;6249;52.128;9.986;2023-02-04T07:11:43;7.23;;;3.47;;
12369;SDS011;6249;52.128;9.986;2023-02-04T07:15:03;8.17;;;3.60;;
12369;SDS011;6249;52.128;9.986;2023-02-04T07:18:24;7.10;;;3.70;;
12369;SDS011;6249;52.128;9.986;2023-02-04T07:21:47;6.43;;;3.83;;
12369;SDS011;6249;52.128;9.986;2023-02-04T07:25:08;7.13;;;4.50;;
12369;SDS011;6249;52.128;9.986;2023-02-04T07:28:29;13.40;;;6.63;;
12369;SDS011;6249;52.128;9.986;2023-02-04T07:31:52;8.43;;;4.13;;
12369;SDS011;6249;52.128;9.986;2023-02-04T07:35:13;6.50;;;3.80;;
12369;SDS011;6249;52.128;9.986;2023-02-04T07:38:33;7.53;;;3.80;;
12369;SDS011;6249;52.128;9.986;2023-02-04T07:41:54;9.60;;;4.13;;
12369;SDS011;6249;52.128;9.986;2023-02-04T07:45:15;9.07;;;3.77;;
12369;SDS011;6249;52.128;9.986;2023-02-04T07:48:35;9.40;;;3.87;;
12369;SDS011;6249;52.128;9.986;2023-02-04T07:51:56;9.13;;;4.57;;
12369;SDS011;6249;52.128;9.986;2023-02-04T07:55:19;8.63;;;4.57;;
12369;SDS011;6249;52.128;9.986;2023-02-04T07:58:39;11.07;;;5.30;;
12369;SDS011;6249;52.128;9.986;2023-02-04T08:02:00;10.93;;;6.17;;
12369;SDS011;6249;52.128;9.986;2023-02-04T08:05:22;14.23;;;6.60;;
12369;SDS011;6249;52.128;9.986;2023-02-04T08:08:45;13.70;;;5.33;;
12369;SDS011;6249;52.128;9.986;2023-02-04T08:12:06;19.53;;;4.70;;
12369;SDS011;6249;52.128;9.986;2023-02-04T08:15:26;8.40;;;4.40;;
12369;SDS011;6249;52.128;9.986;2023-02-04T08:18:47;7.40;;;3.90;;
12369;SDS011;6249;52.128;9.986;2023-02-04T08:22:08;6.23;;;3.90;;
12369;SDS011;6249;52.128;9.986;2023-02-04T08:25:29;7.80;;;4.10;;
12369;SDS011;6249;52.128;9.986;2023-02-04T08:28:50;6.47;;;3.90;;
12369;SDS011;6249;52.128;9.986;2023-02-04T08:32:10;6.60;;;3.60;;
12369;SDS011;6249;52.128;9.986;2023-02-04T08:35:32;7.90;;;4.63;;
12369;SDS011;6249;52.128;9.986;2023-02-04T08:38:55;10.70;;;4.23;;
12369;SDS011;6249;52.128;9.986;2023-02-04T08:42:18;12.23;;;4.33;;
12369;SDS011;6249;52.128;9.986;2023-02-04T08:45:39;7.10;;;2.73;;
12369;SDS011;6249;52.128;9.986;2023-02-04T08:49:00;7.20;;;3.50;;
12369;SDS011;6249;52.128;9.986;2023-02-04T08:52:20;9.70;;;3.77;;
12369;SDS011;6249;52.128;9.986;2023-02-04T08:55:41;6.77;;;2.40;;
12369;SDS011;6249;52.128;9.986;2023-02-04T08:59:02;7.47;;;3.33;;
12369;SDS011;6249;52.128;9.986;2023-02-04T09:02:22;5.03;;;2.80;;
12369;SDS011;6249;52.128;9.986;2023-02-04T09:05:48;6.63;;;3.00;;
12369;SDS011;6249;52.128;9.986;2023-02-04T09:09:08;12.30;;;3.13;;
12369;SDS011;6249;52.128;9.986;2023-02-04T09:12:29;4.17;;;2.13;;
12369;SDS011;6249;52.128;9.986;2023-02-04T09:15:52;4.40;;;1.90;;
12369;SDS011;6249;52.128;9.986;2023-02-04T09:19:13;6.00;;;2.00;;
12369;SDS011;6249;52.128;9.986;2023-02-04T09:22:35;8.80;;;2.80;;
12369;SDS011;6249;52.128;9.986;2023-02-04T09:25:56;4.53;;;2.47;;
12369;SDS011;6249;52.128;9.986;2023-02-04T09:29:17;5.93;;;2.90;;
12369;SDS011;6249;52.128;9.986;2023-02-04T09:32:40;7.03;;;2.30;;
12369;SDS011;6249;52.128;9.986;2023-02-04T09:36:00;5.23;;;1.93;;
12369;SDS011;6249;52.128;9.986;2023-02-04T09:39:21;9.43;;;2.50;;
12369;SDS011;6249;52.128;9.986;2023-02-04T09:42:42;6.70;;;2.30;;
12369;SDS011;6249;52.128;9.986;2023-02-04T09:46:07;5.97;;;2.40;;
12369;SDS011;6249;52.128;9.986;2023-02-04T09:49:49;10.83;;;3.80;;
12369;SDS011;6249;52.128;9.986;2023-02-04T09:53:13;15.77;;;3.77;;
12369;SDS011;6249;52.128;9.986;2023-02-04T09:56:36;10.13;;;4.27;;
12369;SDS011;6249;52.128;9.986;2023-02-04T09:59:57;7.93;;;3.30;;
12369;SDS011;6249;52.128;9.986;2023-02-04T10:03:20;8.33;;;2.97;;
12369;SDS011;6249;52.128;9.986;2023-02-04T10:06:42;4.33;;;1.93;;
12369;SDS011;6249;52.128;9.986;2023-02-04T10:10:03;6.37;;;1.97;;
12369;SDS011;6249;52.128;9.986;2023-02-04T10:13:31;5.23;;;2.37;;
12369;SDS011;6249;52.128;9.986;2023-02-04T10:16:56;7.33;;;1.40;;
12369;SDS011;6249;52.128;9.986;2023-02-04T10:20:19;4.93;;;1.50;;
12369;SDS011;6249;52.128;9.986;2023-02-04T10:23:45;9.30;;;1.97;;
12369;SDS011;6249;52.128;9.986;2023-02-04T10:27:15;7.93;;;2.00;;
12369;SDS011;6249;52.128;9.986;2023-02-04T10:30:41;4.17;;;1.50;;
12369;SDS011;6249;52.128;9.986;2023-02-04T10:34:21;4.80;;;2.50;;
12369;SDS011;6249;52.128;9.986;2023-02-04T10:38:04;7.50;;;1.50;;
12369;SDS011;6249;52.128;9.986;2023-02-04T10:41:31;8.40;;;2.27;;
12369;SDS011;6249;52.128;9.986;2023-02-04T10:44:56;8.70;;;2.10;;
12369;SDS011;6249;52.128;9.986;2023-02-04T10:48:17;7.73;;;1.70;;
12369;SDS011;6249;52.128;9.986;2023-02-04T10:51:38;4.50;;;1.67;;
12369;SDS011;6249;52.128;9.986;2023-02-04T10:55:05;7.67;;;1.67;;
12369;SDS011;6249;52.128;9.986;2023-02-04T10:58:30;6.10;;;1.77;;
12369;SDS011;6249;52.128;9.986;2023-02-04T11:01:51;8.83;;;1.87;;
12369;SDS011;6249;52.128;9.986;2023-02-04T11:05:18;2.47;;;1.00;;
12369;SDS011;6249;52.128;9.986;2023-02-04T11:08:40;4.13;;;1.40;;
12369;SDS011;6249;52.128;9.986;2023-02-04T11:12:01;3.77;;;1.10;;
12369;SDS011;6249;52.128;9.986;2023-02-04T11:19:09;7.00;;;1.60;;
12369;SDS011;6249;52.128;9.986;2023-02-04T11:22:43;4.10;;;1.00;;
12369;SDS011;6249;52.128;9.986;2023-02-04T11:26:09;5.90;;;1.50;;
12369;SDS011;6249;52.128;9.986;2023-02-04T11:29:41;2.97;;;1.10;;
12369;SDS011;6249;52.128;9.986;2023-02-04T11:33:20;2.90;;;1.30;;
12369;SDS011;6249;52.128;9.986;2023-02-04T11:37:02;3.90;;;1.33;;
12369;SDS011;6249;52.128;9.986;2023-02-04T11:40:34;6.93;;;1.27;;
12369;SDS011;6249;52.128;9.986;2023-02-04T11:43:59;4.93;;;1.30;;
12369;SDS011;6249;52.128;9.986;2023-02-04T11:47:21;4.33;;;1.30;;
12369;SDS011;6249;52.128;9.986;2023-02-04T11:50:53;5.10;;;1.30;;
12369;SDS011;6249;52.128;9.986;2023-02-04T11:54:18;4.67;;;1.00;;
12369;SDS011;6249;52.128;9.986;2023-02-04T11:57:39;3.23;;;0.90;;
12369;SDS011;6249;52.128;9.986;2023-02-04T12:01:01;5.07;;;1.43;;
12369;SDS011;6249;52.128;9.986;2023-02-04T12:04:27;4.70;;;1.03;;
12369;SDS011;6249;52.128;9.986;2023-02-04T12:07:50;3.60;;;1.37;;
12369;SDS011;6249;52.128;9.986;2023-02-04T12:11:12;3.77;;;1.10;;
12369;SDS011;6249;52.128;9.986;2023-02-04T12:14:55;3.60;;;1.33;;
12369;SDS011;6249;52.128;9.986;2023-02-04T12:18:22;3.03;;;0.93;;
12369;SDS011;6249;52.128;9.986;2023-02-04T12:21:46;2.83;;;1.10;;
12369;SDS011;6249;52.128;9.986;2023-02-04T12:25:10;3.23;;;1.33;;
12369;SDS011;6249;52.128;9.986;2023-02-04T12:28:35;3.90;;;1.37;;
12369;SDS011;6249;52.128;9.986;2023-02-04T12:31:58;4.20;;;1.50;;
12369;SDS011;6249;52.128;9.986;2023-02-04T12:35:21;6.40;;;1.23;;
12369;SDS011;6249;52.128;9.986;2023-02-04T12:38:42;4.53;;;1.80;;
12369;SDS011;6249;52.128;9.986;2023-02-04T12:42:02;3.30;;;1.40;;
12369;SDS011;6249;52.128;9.986;2023-02-04T12:45:25;4.80;;;1.57;;
12369;SDS011;6249;52.128;9.986;2023-02-04T12:48:46;5.50;;;2.33;;
12369;SDS011;6249;52.128;9.986;2023-02-04T12:52:06;4.30;;;1.80;;
12369;SDS011;6249;52.128;9.986;2023-02-04T12:55:31;4.40;;;1.60;;
12369;SDS011;6249;52.128;9.986;2023-02-04T12:58:54;4.00;;;1.60;;
12369;SDS011;6249;52.128;9.986;2023-02-04T13:02:15;3.33;;;1.17;;
12369;SDS011;6249;52.128;9.986;2023-02-04T13:05:38;5.43;;;1.90;;
12369;SDS011;6249;52.128;9.986;2023-02-04T13:08:58;4.10;;;1.47;;
12369;SDS011;6249;52.128;9.986;2023-02-04T13:12:19;5.63;;;1.40;;
12369;SDS011;6249;52.128;9.986;2023-02-04T13:15:39;4.43;;;1.63;;
12369;SDS011;6249;52.128;9.986;2023-02-04T13:19:00;3.90;;;1.33;;
12369;SDS011;6249;52.128;9.986;2023-02-04T13:22:21;4.33;;;1.57;;
12369;SDS011;6249;52.128;9.986;2023-02-04T13:25:41;3.37;;;1.30;;
12369;SDS011;6249;52.128;9.986;2023-02-04T13:29:03;3.90;;;1.40;;
12369;SDS011;6249;52.128;9.986;2023-02-04T13:32:24;3.03;;;1.07;;
12369;SDS011;6249;52.128;9.986;2023-02-04T13:35:44;5.10;;;1.23;;
12369;SDS011;6249;52.128;9.986;2023-02-04T13:39:07;4.80;;;1.53;;
12369;SDS011;6249;52.128;9.986;2023-02-04T13:42:30;3.20;;;1.00;;
12369;SDS011;6249;52.128;9.986;2023-02-04T13:45:51;2.60;;;0.90;;
12369;SDS011;6249;52.128;9.986;2023-02-04T13:49:14;2.77;;;1.03;;
12369;SDS011;6249;52.128;9.986;2023-02-04T13:52:37;3.70;;;1.10;;
12369;SDS011;6249;52.128;9.986;2023-02-04T13:55:57;3.73;;;1.20;;
12369;SDS011;6249;52.128;9.986;2023-02-04T13:59:18;3.27;;;1.00;;
12369;SDS011;6249;52.128;9.986;2023-02-04T14:02:39;3.77;;;0.90;;
12369;SDS011;6249;52.128;9.986;2023-02-04T14:06:05;4.60;;;1.57;;
12369;SDS011;6249;52.128;9.986;2023-02-04T14:09:28;3.37;;;1.37;;
12369;SDS011;6249;52.128;9.986;2023-02-04T14:12:48;4.83;;;1.20;;
12369;SDS011;6249;52.128;9.986;2023-02-04T14:16:09;4.50;;;1.30;;
12369;SDS011;6249;52.128;9.986;2023-02-04T14:19:30;4.20;;;1.70;;
12369;SDS011;6249;52.128;9.986;2023-02-04T14:22:53;4.50;;;1.43;;
12369;SDS011;6249;52.128;9.986;2023-02-04T14:26:16;3.50;;;1.20;;
12369;SDS011;6249;52.128;9.986;2023-02-04T14:29:36;4.77;;;1.40;;
12369;SDS011;6249;52.128;9.986;2023-02-04T14:32:59;3.97;;;1.43;;
12369;SDS011;6249;52.128;9.986;2023-02-04T14:36:20;4.10;;;1.53;;
12369;SDS011;6249;52.128;9.986;2023-02-04T14:39:43;3.33;;;1.30;;
12369;SDS011;6249;52.128;9.986;2023-02-04T14:43:04;6.40;;;1.50;;
12369;SDS011;6249;52.128;9.986;2023-02-04T14:46:26;4.93;;;1.97;;
12369;SDS011;6249;52.128;9.986;2023-02-04T14:49:46;6.10;;;2.30;;
12369;SDS011;6249;52.128;9.986;2023-02-04T14:53:10;4.93;;;2.00;;
12369;SDS011;6249;52.128;9.986;2023-02-04T14:56:30;4.47;;;1.67;;
12369;SDS011;6249;52.128;9.986;2023-02-04T14:59:51;3.20;;;1.47;;
12369;SDS011;6249;52.128;9.986;2023-02-04T15:03:11;5.67;;;1.50;;
12369;SDS011;6249;52.128;9.986;2023-02-04T15:06:32;3.27;;;1.30;;
12369;SDS011;6249;52.128;9.986;2023-02-04T15:09:52;4.30;;;1.37;;
12369;SDS011;6249;52.128;9.986;2023-02-04T15:13:13;2.60;;;1.07;;
12369;SDS011;6249;52.128;9.986;2023-02-04T15:16:34;5.67;;;1.77;;
12369;SDS011;6249;52.128;9.986;2023-02-04T15:19:56;4.87;;;1.80;;
12369;SDS011;6249;52.128;9.986;2023-02-04T15:23:19;6.70;;;2.20;;
12369;SDS011;6249;52.128;9.986;2023-02-04T15:26:40;3.40;;;1.30;;
12369;SDS011;6249;52.128;9.986;2023-02-04T15:30:06;4.07;;;1.50;;
12369;SDS011;6249;52.128;9.986;2023-02-04T15:33:32;4.60;;;1.60;;
12369;SDS011;6249;52.128;9.986;2023-02-04T15:36:53;31.20;;;16.73;;
12369;SDS011;6249;52.128;9.986;2023-02-04T15:40:13;7.80;;;3.80;;
12369;SDS011;6249;52.128;9.986;2023-02-04T15:43:34;8.03;;;2.93;;
12369;SDS011;6249;52.128;9.986;2023-02-04T15:46:57;6.23;;;3.00;;
12369;SDS011;6249;52.128;9.986;2023-02-04T15:50:20;6.57;;;3.10;;
12369;SDS011;6249;52.128;9.986;2023-02-04T15:53:45;7.87;;;2.60;;
12369;SDS011;6249;52.128;9.986;2023-02-04T15:57:06;9.73;;;4.07;;
12369;SDS011;6249;52.128;9.986;2023-02-04T16:00:26;5.70;;;2.77;;
12369;SDS011;6249;52.128;9.986;2023-02-04T16:03:49;6.90;;;3.40;;
12369;SDS011;6249;52.128;9.986;2023-02-04T16:07:15;6.77;;;3.33;;
12369;SDS011;6249;52.128;9.986;2023-02-04T16:10:35;5.90;;;2.77;;
12369;SDS011;6249;52.128;9.986;2023-02-04T16:13:58;6.17;;;3.20;;
12369;SDS011;6249;52.128;9.986;2023-02-04T16:17:21;7.73;;;3.80;;
12369;SDS011;6249;52.128;9.986;2023-02-04T16:20:42;3.63;;;1.47;;
12369;SDS011;6249;52.128;9.986;2023-02-04T16:24:03;10.00;;;5.00;;
12369;SDS011;6249;52.128;9.986;2023-02-04T16:27:23;9.53;;;5.10;;
12369;SDS011;6249;52.128;9.986;2023-02-04T16:30:45;16.73;;;9.57;;
12369;SDS011;6249;52.128;9.986;2023-02-04T16:34:06;15.13;;;7.13;;
12369;SDS011;6249;52.128;9.986;2023-02-04T16:37:29;12.70;;;3.63;;
12369;SDS011;6249;52.128;9.986;2023-02-04T16:40:50;28.10;;;12.90;;
12369;SDS011;6249;52.128;9.986;2023-02-04T16:44:10;21.90;;;9.60;;
12369;SDS011;6249;52.128;9.986;2023-02-04T16:47:36;29.70;;;14.20;;
12369;SDS011;6249;52.128;9.986;2023-02-04T16:50:56;37.13;;;19.43;;
12369;SDS011;6249;52.128;9.986;2023-02-04T16:54:17;33.30;;;18.90;;
12369;SDS011;6249;52.128;9.986;2023-02-04T16:57:37;29.80;;;18.27;;
12369;SDS011;6249;52.128;9.986;2023-02-04T17:00:58;14.80;;;9.43;;
12369;SDS011;6249;52.128;9.986;2023-02-04T17:04:18;18.30;;;6.97;;
12369;SDS011;6249;52.128;9.986;2023-02-04T17:07:39;11.87;;;6.80;;
12369;SDS011;6249;52.128;9.986;2023-02-04T17:11:00;13.00;;;7.10;;
12369;SDS011;6249;52.128;9.986;2023-02-04T17:14:39;20.87;;;12.03;;
12369;SDS011;6249;52.128;9.986;2023-02-04T17:18:00;18.20;;;8.60;;
12369;SDS011;6249;52.128;9.986;2023-02-04T17:21:21;31.50;;;13.80;;
12369;SDS011;6249;52.128;9.986;2023-02-04T17:24:43;18.57;;;8.03;;
12369;SDS011;6249;52.128;9.986;2023-02-04T17:28:06;10.63;;;5.60;;
12369;SDS011;6249;52.128;9.986;2023-02-04T17:31:29;38.60;;;16.10;;
12369;SDS011;6249;52.128;9.986;2023-02-04T17:34:50;32.03;;;14.00;;
12369;SDS011;6249;52.128;9.986;2023-02-04T17:38:13;35.70;;;15.73;;
12369;SDS011;6249;52.128;9.986;2023-02-04T17:41:36;23.97;;;10.20;;
12369;SDS011;6249;52.128;9.986;2023-02-04T17:44:57;27.53;;;11.20;;
12369;SDS011;6249;52.128;9.986;2023-02-04T17:48:17;21.90;;;10.33;;
12369;SDS011;6249;52.128;9.986;2023-02-04T17:51:40;26.73;;;11.33;;
12369;SDS011;6249;52.128;9.986;2023-02-04T17:55:05;22.47;;;9.30;;
12369;SDS011;6249;52.128;9.986;2023-02-04T17:58:35;19.53;;;8.90;;
12369;SDS011;6249;52.128;9.986;2023-02-04T18:01:56;13.77;;;6.43;;
12369;SDS011;6249;52.128;9.986;2023-02-04T18:05:18;14.10;;;6.23;;
12369;SDS011;6249;52.128;9.986;2023-02-04T18:08:40;14.53;;;7.17;;
12369;SDS011;6249;52.128;9.986;2023-02-04T18:12:01;19.43;;;9.87;;
12369;SDS011;6249;52.128;9.986;2023-02-04T18:15:31;17.90;;;8.53;;
12369;SDS011;6249;52.128;9.986;2023-02-04T18:18:55;18.37;;;9.27;;
12369;SDS011;6249;52.128;9.986;2023-02-04T18:22:20;12.53;;;6.80;;
12369;SDS011;6249;52.128;9.986;2023-02-04T18:25:44;14.10;;;6.40;;
12369;SDS011;6249;52.128;9.986;2023-02-04T18:29:26;17.50;;;8.53;;
12369;SDS011;6249;52.128;9.986;2023-02-04T18:32:48;11.70;;;6.77;;
12369;SDS011;6249;52.128;9.986;2023-02-04T18:36:14;10.10;;;5.53;;
12369;SDS011;6249;52.128;9.986;2023-02-04T18:39:39;11.07;;;6.00;;
12369;SDS011;6249;52.128;9.986;2023-02-04T18:46:50;9.27;;;4.57;;
12369;SDS011;6249;52.128;9.986;2023-02-04T18:53:47;12.90;;;4.10;;
12369;SDS011;6249;52.128;9.986;2023-02-04T19:00:36;9.93;;;5.23;;
12369;SDS011;6249;52.128;9.986;2023-02-04T19:04:00;12.20;;;6.20;;
12369;SDS011;6249;52.128;9.986;2023-02-04T19:07:22;15.13;;;7.33;;
12369;SDS011;6249;52.128;9.986;2023-02-04T19:10:45;11.90;;;5.80;;
12369;SDS011;6249;52.128;9.986;2023-02-04T19:17:55;14.53;;;6.10;;
12369;SDS011;6249;52.128;9.986;2023-02-04T19:21:25;13.83;;;7.40;;
12369;SDS011;6249;52.128;9.986;2023-02-04T19:24:53;13.07;;;6.97;;
12369;SDS011;6249;52.128;9.986;2023-02-04T19:31:46;12.40;;;6.20;;
12369;SDS011;6249;52.128;9.986;2023-02-04T19:35:16;9.70;;;4.57;;
12369;SDS011;6249;52.128;9.986;2023-02-04T19:38:39;10.33;;;5.90;;
12369;SDS011;6249;52.128;9.986;2023-02-04T19:42:02;15.90;;;8.37;;
12369;SDS011;6249;52.128;9.986;2023-02-04T19:45:49;13.00;;;7.43;;
12369;SDS011;6249;52.128;9.986;2023-02-04T19:49:21;23.70;;;12.07;;
12369;SDS011;6249;52.128;9.986;2023-02-04T19:52:47;21.00;;;11.03;;
12369;SDS011;6249;52.128;9.986;2023-02-04T20:00:01;18.03;;;9.90;;
12369;SDS011;6249;52.128;9.986;2023-02-04T20:07:13;22.53;;;10.70;;
12369;SDS011;6249;52.128;9.986;2023-02-04T20:10:43;18.83;;;8.87;;
12369;SDS011;6249;52.128;9.986;2023-02-04T20:21:09;13.87;;;7.30;;
12369;SDS011;6249;52.128;9.986;2023-02-04T20:24:36;20.80;;;8.73;;
12369;SDS011;6249;52.128;9.986;2023-02-04T20:28:02;22.53;;;10.60;;
12369;SDS011;6249;52.128;9.986;2023-02-04T20:31:48;16.00;;;8.83;;
12369;SDS011;6249;52.128;9.986;2023-02-04T20:38:32;13.90;;;8.70;;
12369;SDS011;6249;52.128;9.986;2023-02-04T20:41:53;16.33;;;8.00;;
12369;SDS011;6249;52.128;9.986;2023-02-04T20:45:34;13.70;;;7.17;;
12369;SDS011;6249;52.128;9.986;2023-02-04T20:48:55;15.50;;;8.40;;
12369;SDS011;6249;52.128;9.986;2023-02-04T20:56:00;39.80;;;13.90;;
12369;SDS011;6249;52.128;9.986;2023-02-04T20:59:25;28.07;;;12.77;;
12369;SDS011;6249;52.128;9.986;2023-02-04T21:02:52;32.07;;;11.60;;
12369;SDS011;6249;52.128;9.986;2023-02-04T21:09:42;8.73;;;3.03;;
12369;SDS011;6249;52.128;9.986;2023-02-04T21:13:02;6.03;;;2.67;;
12369;SDS011;6249;52.128;9.986;2023-02-04T21:16:23;8.47;;;3.93;;
12369;SDS011;6249;52.128;9.986;2023-02-04T21:19:43;8.20;;;3.10;;